Time;durP1;ratioP1;P1;durP2;ratioP2;P2;SDS_P1;SDS_P2;PMS_P1;PMS_P2;Temp;Humidity;BMP_temperature;BMP_pressure;BME280_temperature;BME280_humidity;BME280_pressure;Samples;Min_cycle;Max_cycle;Signal;HPM_P1;HPM_P2
2023/07/14 00:01:23;;;;;;;13.05;6.25;;;;;;;21.62;52.97;101249.38;5016007;28;20061;-67
2023/07/14 00:03:51;;;;;;;12.27;6.15;;;;;;;21.61;53.11;101253.38;5029681;28;20050;-61
2023/07/14 00:06:19;;;;;;;12.05;5.90;;;;;;;21.71;53.07;101243.50;5046977;28;20049;-61
2023/07/14 00:08:47;;;;;;;11.45;6.50;;;;;;;21.84;52.80;101236.56;5077420;28;20051;-67
2023/07/14 00:11:19;;;;;;;11.10;6.53;;;;;;;21.91;52.56;101240.28;5097217;28;20391;-61
2023/07/14 00:13:48;;;;;;;10.05;6.28;;;;;;;21.96;52.48;101231.56;5090974;28;20050;-66
2023/07/14 00:16:21;;;;;;;10.93;6.57;;;;;;;21.74;53.32;101231.56;5024979;28;20046;-67
2023/07/14 00:18:48;;;;;;;13.27;6.97;;;;;;;21.72;53.06;101234.75;5016193;28;20046;-67
2023/07/14 00:21:18;;;;;;;15.43;7.00;;;;;;;21.64;53.46;101226.56;5009878;28;20046;-61
2023/07/14 00:23:46;;;;;;;17.65;7.03;;;;;;;21.27;54.64;101225.56;5027008;28;20076;-61
2023/07/14 00:26:15;;;;;;;10.77;7.10;;;;;;;21.27;55.01;101228.34;5011974;28;20054;-62
2023/07/14 00:28:43;;;;;;;13.45;7.35;;;;;;;21.32;55.05;101230.84;5080862;28;20055;-61
2023/07/14 00:31:13;;;;;;;11.68;6.75;;;;;;;21.33;55.17;101230.47;5034963;28;20061;-61
2023/07/14 00:33:42;;;;;;;12.85;6.90;;;;;;;21.44;54.59;101227.84;5011001;28;20060;-62
2023/07/14 00:36:11;;;;;;;9.68;6.53;;;;;;;21.32;55.11;101223.25;5006795;28;20061;-61
2023/07/14 00:38:39;;;;;;;15.55;7.53;;;;;;;21.40;55.01;101222.19;5047285;28;20048;-61
2023/07/14 00:41:13;;;;;;;12.35;7.22;;;;;;;21.38;54.78;101220.91;5092481;28;20693;-61
2023/07/14 00:43:42;;;;;;;10.35;7.40;;;;;;;21.61;54.38;101225.34;5084288;28;20045;-62
2023/07/14 00:46:22;;;;;;;11.82;7.45;;;;;;;21.50;54.43;101215.94;5030347;28;20042;-61
2023/07/14 00:48:52;;;;;;;15.98;8.18;;;;;;;21.49;54.47;101210.72;5089844;28;20056;-64
2023/07/14 00:51:19;;;;;;;14.52;8.98;;;;;;;21.64;53.86;101218.16;5091386;28;20052;-67
2023/07/14 00:53:47;;;;;;;15.85;8.70;;;;;;;21.45;54.76;101219.06;5109810;28;20058;-66
2023/07/14 00:56:14;;;;;;;14.75;9.10;;;;;;;21.48;54.47;101209.09;5093348;28;20044;-62
2023/07/14 00:58:45;;;;;;;20.10;9.93;;;;;;;21.54;54.23;101208.41;5094044;28;20040;-62
2023/07/14 01:01:22;;;;;;;15.00;9.38;;;;;;;21.38;54.27;101206.91;5081401;28;20061;-61
2023/07/14 01:03:52;;;;;;;17.42;9.90;;;;;;;21.41;54.18;101195.75;5029190;28;20054;-61
2023/07/14 01:06:23;;;;;;;14.57;9.45;;;;;;;21.46;54.23;101191.84;5014486;28;20054;-61
2023/07/14 01:08:55;;;;;;;14.77;9.32;;;;;;;21.41;54.66;101192.97;5031074;28;20057;-61
2023/07/14 01:11:28;;;;;;;14.55;8.73;;;;;;;21.47;54.06;101196.25;5009737;28;20057;-61
2023/07/14 01:13:56;;;;;;;14.13;9.23;;;;;;;21.40;54.37;101185.75;5008367;28;20049;-61
2023/07/14 01:16:23;;;;;;;13.43;8.80;;;;;;;21.35;54.34;101188.03;5002883;28;20053;-61
2023/07/14 01:18:51;;;;;;;18.23;8.75;;;;;;;21.56;53.67;101182.78;5004495;28;20050;-67
2023/07/14 01:21:23;;;;;;;16.13;9.30;;;;;;;21.55;53.94;101187.59;5063413;28;20479;-67
2023/07/14 01:24:10;;;;;;;15.68;9.35;;;;;;;21.45;54.31;101181.81;5022865;28;20438;-66
2023/07/14 01:27:02;;;;;;;14.70;8.52;;;;;;;21.41;54.53;101178.94;4974379;28;20062;-67
2023/07/14 01:29:29;;;;;;;13.05;8.70;;;;;;;21.30;54.88;101166.75;5006506;28;20464;-66
2023/07/14 01:31:57;;;;;;;13.32;8.52;;;;;;;21.39;54.36;101161.72;4998077;28;20058;-67
2023/07/14 01:34:25;;;;;;;12.77;7.82;;;;;;;21.51;54.32;101155.09;4985685;28;20062;-61
2023/07/14 01:36:58;;;;;;;12.85;8.45;;;;;;;21.48;54.39;101153.84;5003068;28;20057;-67
2023/07/14 01:39:26;;;;;;;14.45;8.52;;;;;;;21.29;54.72;101156.72;5010495;28;20058;-66
2023/07/14 01:41:54;;;;;;;12.90;8.38;;;;;;;21.41;54.50;101162.13;5030035;28;20082;-67
2023/07/14 01:44:21;;;;;;;16.65;8.70;;;;;;;21.43;54.25;101156.97;5083867;27;20057;-67
2023/07/14 01:46:49;;;;;;;13.45;8.50;;;;;;;21.27;54.87;101164.69;5008308;28;20147;-67
2023/07/14 01:49:36;;;;;;;18.27;8.77;;;;;;;21.17;55.01;101154.13;4992930;28;20050;-67
2023/07/14 01:52:04;;;;;;;17.35;7.65;;;;;;;21.14;55.40;101150.09;5059827;28;20522;-67
2023/07/14 01:54:38;;;;;;;11.80;7.68;;;;;;;21.04;55.73;101144.28;5091870;28;20055;-62
2023/07/14 01:57:12;;;;;;;15.93;8.45;;;;;;;20.99;56.12;101147.41;5009164;28;20050;-68
2023/07/14 01:59:44;;;;;;;18.95;8.52;;;;;;;20.98;55.81;101143.78;5009352;28;20053;-67
2023/07/14 02:02:33;;;;;;;14.57;8.30;;;;;;;21.06;55.90;101136.34;5013821;28;20050;-68
2023/07/14 02:05:18;;;;;;;16.02;8.43;;;;;;;21.07;55.76;101143.53;5009049;28;20046;-66
2023/07/14 02:07:47;;;;;;;13.18;8.38;;;;;;;21.15;55.56;101136.88;5068523;28;20578;-67
2023/07/14 02:10:19;;;;;;;16.38;8.60;;;;;;;21.03;56.01;101135.06;5092629;28;20402;-61
2023/07/14 02:12:49;;;;;;;13.98;8.85;;;;;;;21.04;56.05;101139.47;5091770;28;20062;-61
2023/07/14 02:15:20;;;;;;;12.00;8.27;;;;;;;21.03;55.55;101131.47;5022976;28;20054;-66
2023/07/14 02:17:47;;;;;;;;;;;;;;;21.09;55.09;101135.56;4998395;28;20370;-66
2023/07/14 02:20:27;;;;;;;12.65;8.38;;;;;;;21.11;55.29;101139.59;5008865;28;19922;-66
2023/07/14 02:22:55;;;;;;;15.52;8.60;;;;;;;21.11;55.38;101136.81;5010330;28;20057;-61
2023/07/14 02:25:26;;;;;;;16.10;8.98;;;;;;;21.03;55.13;101134.25;5025816;28;20064;-60
2023/07/14 02:27:53;;;;;;;;;;;;;;;21.01;55.17;101134.63;5008919;28;20492;-62
2023/07/14 02:30:22;;;;;;;14.55;8.57;;;;;;;21.07;55.18;101137.94;4992570;28;20024;-62
2023/07/14 02:32:53;;;;;;;19.25;9.02;;;;;;;21.01;55.32;101133.81;5009962;28;20053;-60
2023/07/14 02:35:30;;;;;;;16.20;9.70;;;;;;;21.11;55.14;101139.59;5018051;28;20054;-61
2023/07/14 02:38:05;;;;;;;15.38;9.00;;;;;;;21.06;54.83;101134.31;5086448;28;20056;-62
2023/07/14 02:40:36;;;;;;;15.38;8.70;;;;;;;21.01;54.97;101133.81;5092488;28;20055;-61
2023/07/14 02:43:06;;;;;;;16.73;9.45;;;;;;;20.95;55.03;101130.50;5105655;28;20062;-62
2023/07/14 02:45:36;;;;;;;13.07;8.13;;;;;;;21.01;55.17;101129.03;5017437;28;20050;-66
2023/07/14 02:48:04;;;;;;;17.40;8.80;;;;;;;21.03;54.80;101121.06;5008570;28;20046;-66
2023/07/14 02:50:32;;;;;;;14.48;8.38;;;;;;;21.18;54.46;101134.13;4997448;28;20045;-66
2023/07/14 02:53:00;;;;;;;17.27;9.05;;;;;;;21.27;54.07;101133.88;5010019;28;20053;-67
2023/07/14 02:55:27;;;;;;;12.73;8.40;;;;;;;21.04;54.65;101124.69;5016887;28;20059;-66
2023/07/14 02:57:55;;;;;;;15.07;8.63;;;;;;;20.99;54.97;101127.81;5012239;28;20054;-66
2023/07/14 03:00:22;;;;;;;18.60;8.75;;;;;;;20.95;54.85;101118.50;5006866;28;20050;-67
2023/07/14 03:02:49;;;;;;;15.25;8.65;;;;;;;21.14;54.65;101129.66;5049374;28;20076;-66
2023/07/14 03:05:17;;;;;;;21.85;8.13;;;;;;;21.27;54.10;101119.06;5096306;28;20532;-61
2023/07/14 03:07:45;;;;;;;14.48;8.15;;;;;;;21.22;54.13;101117.38;5060501;28;20049;-61
2023/07/14 03:10:12;;;;;;;11.30;7.25;;;;;;;20.89;54.80;101108.78;5095710;28;20062;-67
2023/07/14 03:12:40;;;;;;;15.02;7.95;;;;;;;21.03;54.20;101109.88;5093094;28;20051;-67
2023/07/14 03:15:10;;;;;;;13.85;7.63;;;;;;;21.05;54.12;101101.91;5101787;28;20063;-67
2023/07/14 03:17:38;;;;;;;17.65;7.97;;;;;;;20.84;55.10;101101.50;5029988;28;20061;-61
2023/07/14 03:20:11;;;;;;;14.68;8.20;;;;;;;20.96;54.78;101086.50;4993197;28;20046;-61
2023/07/14 03:22:38;;;;;;;15.20;8.18;;;;;;;21.03;55.12;101087.47;5003634;28;20061;-62
2023/07/14 03:25:10;;;;;;;15.05;8.52;;;;;;;21.15;54.36;101092.84;5011385;28;20054;-61
2023/07/14 03:27:38;;;;;;;17.88;8.35;;;;;;;21.00;54.80;101098.59;5012951;28;20664;-64
2023/07/14 03:30:06;;;;;;;17.27;8.52;;;;;;;21.17;54.59;101098.09;5012353;28;20512;-61
2023/07/14 03:32:33;;;;;;;13.15;8.07;;;;;;;20.96;54.83;101100.50;4997397;28;20061;-66
2023/07/14 03:35:01;;;;;;;17.50;9.40;;;;;;;20.78;55.78;101091.78;5008846;28;20061;-67
2023/07/14 03:37:28;;;;;;;15.77;9.32;;;;;;;20.78;56.39;101088.19;5022445;28;20069;-67
2023/07/14 03:39:56;;;;;;;15.80;9.77;;;;;;;20.84;56.12;101090.31;5008004;28;20081;-67
2023/07/14 03:42:23;;;;;;;18.75;9.43;;;;;;;20.76;56.56;101085.78;4997229;28;20081;-67
2023/07/14 03:44:51;;;;;;;13.25;9.20;;;;;;;20.76;56.65;101082.16;5019096;28;20049;-67
2023/07/14 03:47:18;;;;;;;13.95;8.98;;;;;;;20.84;56.26;101089.47;4985884;28;20050;-67
2023/07/14 03:49:46;;;;;;;15.57;9.27;;;;;;;20.73;56.91;101075.28;4993470;28;20055;-67
2023/07/14 03:52:13;;;;;;;15.55;9.23;;;;;;;20.72;56.90;101070.06;5035886;28;20042;-67
2023/07/14 03:54:40;;;;;;;14.05;8.93;;;;;;;20.62;57.23;101070.69;5011472;28;20704;-68
2023/07/14 03:57:08;;;;;;;16.77;8.63;;;;;;;20.77;56.59;101069.75;5024794;28;20058;-67
2023/07/14 03:59:35;;;;;;;14.52;7.97;;;;;;;20.90;56.36;101069.19;5031306;28;20047;-67
2023/07/14 04:02:03;;;;;;;13.13;6.60;;;;;;;20.90;55.74;101074.00;5061293;28;20057;-66
2023/07/14 04:04:30;;;;;;;10.65;6.00;;;;;;;20.93;55.80;101071.25;5001209;28;20054;-67
2023/07/14 04:07:01;;;;;;;11.57;5.80;;;;;;;20.83;55.70;101080.28;4992323;28;20058;-66
2023/07/14 04:09:29;;;;;;;12.77;6.47;;;;;;;20.75;56.40;101064.53;5030383;28;20051;-67
2023/07/14 04:11:57;;;;;;;14.13;7.75;;;;;;;20.61;56.86;101069.88;5017172;28;20428;-67
2023/07/14 04:14:25;;;;;;;15.48;8.30;;;;;;;20.50;57.86;101065.28;5026652;28;20054;-67
2023/07/14 04:16:52;;;;;;;15.30;8.27;;;;;;;20.52;58.08;101062.91;5063113;28;20052;-61
2023/07/14 04:19:20;;;;;;;14.48;8.70;;;;;;;20.66;58.08;101065.97;5010993;28;20049;-66
2023/07/14 04:21:47;;;;;;;16.02;8.48;;;;;;;20.80;57.38;101069.03;4999606;28;20297;-62
2023/07/14 04:24:15;;;;;;;17.52;9.40;;;;;;;20.83;57.02;101065.47;5109657;28;20060;-61
2023/07/14 04:26:42;;;;;;;18.58;9.70;;;;;;;20.69;57.49;101056.84;5102284;28;20052;-63
2023/07/14 04:29:11;;;;;;;16.27;9.70;;;;;;;20.68;57.54;101069.19;5029976;28;20076;-60
2023/07/14 04:31:39;;;;;;;14.95;8.80;;;;;;;20.66;57.85;101065.97;4995418;28;20421;-61
2023/07/14 04:34:07;;;;;;;15.82;8.50;;;;;;;20.62;57.78;101054.72;5007128;28;20059;-62
2023/07/14 04:36:34;;;;;;;16.17;8.98;;;;;;;20.69;57.89;101056.84;5043229;28;20080;-62
2023/07/14 04:39:07;;;;;;;14.57;8.98;;;;;;;20.75;57.55;101050.53;5094017;28;20048;-66
2023/07/14 04:41:35;;;;;;;18.58;8.82;;;;;;;20.66;57.78;101052.78;5073392;28;20052;-61
2023/07/14 04:44:08;;;;;;;13.10;8.57;;;;;;;20.57;58.10;101043.84;5073528;28;20053;-67
2023/07/14 04:46:36;;;;;;;16.70;8.90;;;;;;;20.57;58.15;101031.81;5087473;28;20053;-66
2023/07/14 04:49:04;;;;;;;15.27;8.48;;;;;;;20.51;58.07;101036.91;5022883;28;20038;-66
2023/07/14 04:51:33;;;;;;;13.20;7.10;;;;;;;20.39;58.47;101039.06;5049958;28;20050;-67
2023/07/14 04:54:00;;;;;;;12.90;6.78;;;;;;;20.43;58.20;101039.97;5010963;28;20046;-67
2023/07/14 04:56:28;;;;;;;12.40;6.40;;;;;;;20.41;58.08;101023.53;5011675;28;20599;-67
2023/07/14 04:58:55;;;;;;;14.55;6.32;;;;;;;20.42;58.17;101019.56;5011118;28;20072;-67
2023/07/14 05:01:23;;;;;;;12.38;6.53;;;;;;;20.53;57.72;101014.16;5012052;28;20053;-66
2023/07/14 05:03:50;;;;;;;17.92;6.03;;;;;;;20.50;57.57;101009.31;5027520;28;20569;-67
2023/07/14 05:06:18;;;;;;;11.50;5.57;;;;;;;20.61;57.68;101004.69;4990633;28;20054;-61
2023/07/14 05:08:46;;;;;;;15.38;6.43;;;;;;;20.67;56.96;101000.41;4991591;28;20053;-61
2023/07/14 05:11:16;;;;;;;11.48;5.30;;;;;;;20.69;56.96;100987.66;5055040;28;20075;-62
2023/07/14 05:13:45;;;;;;;12.02;6.47;;;;;;;20.65;56.87;100980.38;5077009;28;20041;-62
2023/07/14 05:16:12;;;;;;;10.80;5.30;;;;;;;20.61;57.29;100971.91;5014028;28;20054;-66
2023/07/14 05:18:40;;;;;;;11.93;5.45;;;;;;;20.55;57.57;100969.81;5020776;28;20061;-66
2023/07/14 05:21:08;;;;;;;12.23;5.32;;;;;;;20.53;58.08;100963.78;5006649;28;20050;-68
2023/07/14 05:23:35;;;;;;;13.95;5.13;;;;;;;20.76;56.94;100940.19;5009623;28;20057;-67
2023/07/14 05:26:03;;;;;;;13.05;5.32;;;;;;;20.89;56.31;100946.34;5008900;28;20058;-61
2023/07/14 05:28:30;;;;;;;13.27;4.10;;;;;;;20.83;56.24;100961.88;4997779;28;20059;-66
2023/07/14 05:30:58;;;;;;;8.30;4.00;;;;;;;20.89;56.28;100968.75;4991563;28;20061;-68
2023/07/14 05:33:29;;;;;;;14.32;4.38;;;;;;;20.74;57.20;100961.31;5056812;28;20047;-66
2023/07/14 05:35:56;;;;;;;9.00;4.30;;;;;;;20.95;56.28;100964.47;5120907;27;20055;-67
2023/07/14 05:38:24;;;;;;;9.68;4.18;;;;;;;20.75;56.70;100963.75;5071735;28;20066;-62
2023/07/14 05:40:53;;;;;;;10.25;3.70;;;;;;;20.76;56.21;100970.16;5086676;28;20059;-61
2023/07/14 05:43:27;;;;;;;12.88;3.78;;;;;;;20.57;56.08;100973.03;5065552;28;20048;-60
2023/07/14 05:45:55;;;;;;;6.38;3.13;;;;;;;20.71;55.84;100967.69;5023333;28;20053;-67
2023/07/14 05:48:22;;;;;;;9.27;3.30;;;;;;;20.82;55.43;100974.25;5008912;28;20050;-67
2023/07/14 05:50:50;;;;;;;7.55;3.10;;;;;;;20.77;55.88;100966.97;5010327;28;20049;-69
2023/07/14 05:53:17;;;;;;;10.30;4.15;;;;;;;20.95;55.78;100953.25;5083398;28;20050;-62
2023/07/14 05:55:45;;;;;;;9.27;3.70;;;;;;;20.62;56.02;100959.56;5075896;28;20053;-61
2023/07/14 05:58:13;;;;;;;13.93;4.68;;;;;;;20.72;56.18;100966.50;5025308;28;20077;-68
2023/07/14 06:00:42;;;;;;;11.35;3.83;;;;;;;20.76;55.56;100947.75;5010238;28;20061;-62
2023/07/14 06:03:16;;;;;;;11.10;3.93;;;;;;;20.89;55.36;100935.97;5036282;28;20048;-61
2023/07/14 06:05:46;;;;;;;10.38;3.70;;;;;;;20.96;55.06;100921.25;5092054;28;20294;-62
2023/07/14 06:08:13;;;;;;;13.23;4.18;;;;;;;20.92;54.64;100949.19;5014022;28;20057;-61
2023/07/14 06:10:41;;;;;;;9.68;3.83;;;;;;;20.84;55.36;100966.28;5007526;28;20065;-61
2023/07/14 06:13:08;;;;;;;8.00;3.75;;;;;;;20.70;55.57;100961.25;5008674;28;20042;-67
2023/07/14 06:15:37;;;;;;;7.63;3.45;;;;;;;20.88;54.86;100944.75;5072042;28;20087;-67
2023/07/14 06:18:04;;;;;;;7.13;3.45;;;;;;;20.75;54.64;100944.16;5032249;28;20289;-66
2023/07/14 06:20:32;;;;;;;11.55;3.83;;;;;;;20.89;54.63;100963.97;5010071;28;20050;-66
2023/07/14 06:23:00;;;;;;;8.20;3.65;;;;;;;20.85;54.53;100945.50;5037082;28;20044;-68
2023/07/14 06:25:27;;;;;;;13.13;3.55;;;;;;;21.13;53.00;100957.16;5009066;28;20061;-66
2023/07/14 06:27:55;;;;;;;9.85;3.33;;;;;;;21.10;53.50;100969.09;5010242;28;20092;-67
2023/07/14 06:30:25;;;;;;;11.60;3.72;;;;;;;21.23;53.17;100957.28;5010024;28;20057;-68
2023/07/14 06:32:52;;;;;;;14.02;3.78;;;;;;;21.32;52.85;100933.78;5043477;28;20047;-61
2023/07/14 06:35:22;;;;;;;10.15;3.83;;;;;;;21.42;51.77;100908.72;5117283;28;20051;-61
2023/07/14 06:37:49;;;;;;;11.07;3.90;;;;;;;21.41;51.33;100914.69;5132972;27;20621;-62
2023/07/14 06:40:17;;;;;;;10.18;3.35;;;;;;;21.37;52.14;100923.06;5095696;28;20049;-68
2023/07/14 06:42:44;;;;;;;10.93;3.80;;;;;;;21.09;52.39;100928.28;5030258;28;20036;-66
2023/07/14 06:45:12;;;;;;;9.13;3.20;;;;;;;21.14;52.87;100930.75;5032593;28;20057;-66
2023/07/14 06:47:39;;;;;;;10.70;3.92;;;;;;;21.24;52.39;100927.28;5096898;28;20052;-63
2023/07/14 06:50:07;;;;;;;11.50;3.97;;;;;;;21.52;51.60;100922.03;5093390;28;20051;-62
2023/07/14 06:52:38;;;;;;;15.65;4.07;;;;;;;21.59;51.48;100908.09;5030980;28;20049;-62
2023/07/14 06:55:06;;;;;;;12.77;4.45;;;;;;;21.41;51.37;100909.88;5019037;28;20065;-62
2023/07/14 06:57:33;;;;;;;13.55;4.18;;;;;;;21.53;51.28;100906.81;5075514;28;20046;-62
2023/07/14 07:00:01;;;;;;;8.82;3.90;;;;;;;21.53;50.72;100909.63;5027475;28;20534;-63
2023/07/14 07:02:28;;;;;;;12.93;4.35;;;;;;;21.65;50.92;100902.97;5023327;28;20044;-61
2023/07/14 07:04:56;;;;;;;10.18;3.95;;;;;;;21.40;51.08;100899.88;5024467;28;20042;-61
2023/07/14 07:07:24;;;;;;;10.32;3.75;;;;;;;21.53;50.77;100894.81;5032904;28;20057;-64
2023/07/14 07:09:55;;;;;;;10.05;3.90;;;;;;;21.60;50.67;100894.91;5016879;28;20053;-61
2023/07/14 07:12:22;;;;;;;11.60;4.28;;;;;;;21.66;50.43;100890.56;5014863;28;20045;-63
2023/07/14 07:14:50;;;;;;;14.00;3.83;;;;;;;21.62;50.48;100889.72;5001785;28;20054;-62
2023/07/14 07:17:17;;;;;;;7.43;3.63;;;;;;;21.70;50.49;100888.59;5003556;28;20058;-61
2023/07/14 07:19:45;;;;;;;12.60;3.80;;;;;;;21.62;50.40;100886.94;5002596;28;20047;-62
2023/07/14 07:22:12;;;;;;;18.00;3.90;;;;;;;21.85;50.20;100881.97;5004878;28;20046;-65
2023/07/14 07:24:39;;;;;;;10.70;4.30;;;;;;;21.94;49.99;100883.28;5012688;28;20064;-64
2023/07/14 07:27:07;;;;;;;7.57;3.85;;;;;;;22.02;49.50;100887.75;5098844;28;20058;-62
2023/07/14 07:29:34;;;;;;;12.32;4.53;;;;;;;22.13;49.67;100873.84;5055974;28;20042;-63
2023/07/14 07:32:03;;;;;;;7.50;3.80;;;;;;;22.27;49.55;100877.56;5003317;28;20839;-61
2023/07/14 07:34:30;;;;;;;11.15;4.15;;;;;;;22.85;47.83;100879.63;5009622;28;20488;-62
2023/07/14 07:36:58;;;;;;;12.70;4.10;;;;;;;22.91;46.76;100878.06;4992384;28;20492;-62
2023/07/14 07:39:25;;;;;;;13.43;4.18;;;;;;;22.72;47.44;100870.72;5009395;28;20054;-63
2023/07/14 07:41:53;;;;;;;15.27;4.32;;;;;;;22.72;47.97;100872.69;4994720;28;20058;-61
2023/07/14 07:44:21;;;;;;;11.98;4.15;;;;;;;22.60;47.86;100873.84;4998930;28;20057;-61
2023/07/14 07:46:48;;;;;;;14.23;4.65;;;;;;;22.72;47.42;100867.09;5012856;28;20497;-62
2023/07/14 07:49:16;;;;;;;10.07;3.85;;;;;;;22.65;47.76;100856.63;4995703;28;20057;-62
2023/07/14 07:51:43;;;;;;;8.60;3.70;;;;;;;22.76;47.74;100843.47;5004323;28;20047;-62
2023/07/14 07:54:11;;;;;;;14.05;4.03;;;;;;;23.18;46.87;100846.47;5016134;28;20050;-61
2023/07/14 07:56:43;;;;;;;11.02;4.35;;;;;;;23.31;46.03;100841.31;5031236;28;20046;-62
2023/07/14 07:59:16;;;;;;;7.78;3.60;;;;;;;23.46;45.87;100834.56;5002424;28;20645;-62
2023/07/14 08:01:45;;;;;;;8.88;3.85;;;;;;;23.41;45.73;100823.69;5021852;28;20058;-62
2023/07/14 08:04:14;;;;;;;10.43;4.00;;;;;;;23.49;45.18;100824.50;5011502;28;20049;-64
2023/07/14 08:06:42;;;;;;;8.05;3.83;;;;;;;23.51;45.62;100822.91;5011627;28;20382;-63
2023/07/14 08:09:12;;;;;;;10.80;3.92;;;;;;;23.50;44.97;100817.69;5009132;28;20615;-63
2023/07/14 08:11:39;;;;;;;8.77;3.53;;;;;;;23.57;45.03;100809.28;5009366;28;20050;-64
2023/07/14 08:14:13;;;;;;;17.70;3.70;;;;;;;23.82;44.20;100810.91;5022345;28;20046;-62
2023/07/14 08:16:40;;;;;;;10.05;3.70;;;;;;;24.13;43.48;100810.13;5012674;28;20066;-62
2023/07/14 08:19:08;;;;;;;10.80;3.72;;;;;;;24.24;42.80;100822.22;5029752;28;20072;-63
2023/07/14 08:21:37;;;;;;;9.88;3.63;;;;;;;24.20;43.50;100826.25;5011990;28;20046;-62
2023/07/14 08:24:06;;;;;;;17.10;4.70;;;;;;;24.18;43.43;100818.19;5011493;28;20050;-62
2023/07/14 08:26:34;;;;;;;9.68;3.75;;;;;;;24.34;42.93;100824.19;4994280;28;20056;-62
2023/07/14 08:29:03;;;;;;;9.07;3.47;;;;;;;24.28;43.32;100817.38;5010368;28;20057;-63
2023/07/14 08:31:30;;;;;;;13.05;3.90;;;;;;;24.45;42.95;100812.94;5004273;28;20504;-62
2023/07/14 08:33:58;;;;;;;9.15;3.55;;;;;;;24.64;41.64;100812.47;5008885;28;20046;-62
2023/07/14 08:36:26;;;;;;;11.13;3.42;;;;;;;24.57;42.04;100811.69;5002409;28;20680;-62
2023/07/14 08:38:54;;;;;;;14.27;3.90;;;;;;;24.49;42.18;100806.09;5003020;28;20053;-63
2023/07/14 08:41:29;;;;;;;14.05;3.97;;;;;;;24.49;41.21;100805.28;5005547;28;20057;-62
2023/07/14 08:44:24;;;;;;;9.10;3.63;;;;;;;24.59;41.24;100792.38;5002663;28;20050;-63
2023/07/14 08:47:15;;;;;;;8.73;4.00;;;;;;;24.65;41.04;100782.31;5016202;28;20041;-62
2023/07/14 08:50:06;;;;;;;11.48;4.03;;;;;;;24.72;40.65;100777.50;5005412;28;20050;-62
2023/07/14 08:52:35;;;;;;;8.38;3.72;;;;;;;25.08;39.83;100770.50;5006812;28;20054;-61
2023/07/14 08:55:18;;;;;;;8.50;3.50;;;;;;;25.25;39.25;100766.75;5003762;28;20577;-62
2023/07/14 08:57:49;;;;;;;9.43;3.50;;;;;;;25.13;39.18;100760.78;4992324;28;20424;-64
2023/07/14 09:00:37;;;;;;;11.07;3.63;;;;;;;25.18;39.03;100751.91;5004304;28;20062;-62
2023/07/14 09:03:18;;;;;;;9.27;3.53;;;;;;;24.91;39.70;100753.66;4994947;28;20045;-61
2023/07/14 09:05:52;;;;;;;10.30;3.65;;;;;;;24.94;39.77;100747.19;5006143;28;20052;-62
2023/07/14 09:08:29;;;;;;;7.10;3.50;;;;;;;25.06;38.97;100741.09;5009250;28;20062;-61
2023/07/14 09:11:12;;;;;;;12.65;3.88;;;;;;;24.92;38.86;100743.97;5006141;28;20042;-61
2023/07/14 09:13:47;;;;;;;14.45;3.70;;;;;;;25.03;39.11;100734.28;5008494;28;20065;-62
2023/07/14 09:16:17;;;;;;;8.55;3.90;;;;;;;25.11;38.62;100727.38;4987950;28;20061;-62
2023/07/14 09:19:12;;;;;;;7.68;2.92;;;;;;;25.20;38.32;100722.09;4991955;28;20065;-61
2023/07/14 09:21:47;;;;;;;8.77;3.60;;;;;;;25.36;38.13;100728.06;5006563;28;20042;-62
2023/07/14 09:24:31;;;;;;;9.63;3.50;;;;;;;25.30;38.05;100724.03;5003684;28;20042;-63
2023/07/14 09:26:58;;;;;;;15.70;3.42;;;;;;;24.97;38.01;100718.19;5001686;28;20050;-61
2023/07/14 09:29:41;;;;;;;7.22;3.03;;;;;;;25.28;37.22;100720.03;5000651;28;20061;-62
2023/07/14 09:32:21;;;;;;;8.07;3.15;;;;;;;25.17;37.34;100711.66;5003260;28;20436;-62
2023/07/14 09:35:04;;;;;;;7.70;3.05;;;;;;;25.29;37.09;100697.06;5004292;28;20058;-61
2023/07/14 09:37:48;;;;;;;7.88;2.97;;;;;;;25.30;37.10;100707.13;5005350;28;20061;-61
2023/07/14 09:40:24;;;;;;;9.18;2.80;;;;;;;25.22;37.49;100704.75;4985066;28;20054;-61
2023/07/14 09:42:54;;;;;;;7.70;3.33;;;;;;;25.41;36.98;100692.97;4988580;28;20601;-62
2023/07/14 09:45:24;;;;;;;9.73;3.45;;;;;;;25.39;37.17;100701.03;5068536;28;20051;-62
2023/07/14 09:48:06;;;;;;;10.57;3.00;;;;;;;25.50;36.78;100690.47;5109948;28;20056;-62
2023/07/14 09:50:38;;;;;;;12.80;2.70;;;;;;;25.60;36.79;100686.78;5086594;28;20047;-62
2023/07/14 09:53:07;;;;;;;6.35;2.75;;;;;;;25.75;36.30;100674.13;5081637;28;20063;-63
2023/07/14 09:56:01;;;;;;;9.18;2.92;;;;;;;25.61;36.28;100673.47;5109523;28;20054;-63
2023/07/14 09:58:30;;;;;;;8.45;2.75;;;;;;;25.85;35.88;100664.78;5110610;28;20052;-61
2023/07/14 10:01:04;;;;;;;7.40;2.85;;;;;;;25.97;35.92;100669.91;5110616;28;20051;-61
2023/07/14 10:03:43;;;;;;;7.53;3.03;;;;;;;26.02;35.45;100657.34;5089552;28;20055;-63
2023/07/14 10:06:21;;;;;;;7.57;2.60;;;;;;;25.70;35.17;100642.75;5108345;28;20039;-62
2023/07/14 10:08:56;;;;;;;7.65;2.25;;;;;;;25.58;35.05;100647.69;5091888;28;20533;-63
2023/07/14 10:11:28;;;;;;;8.35;2.92;;;;;;;25.86;34.66;100638.16;5100820;28;20048;-62
2023/07/14 10:14:03;;;;;;;5.30;2.65;;;;;;;25.63;35.26;100634.38;5100853;28;20525;-62
2023/07/14 10:16:32;;;;;;;6.40;2.85;;;;;;;25.54;34.93;100640.50;5091815;28;20054;-61
2023/07/14 10:19:05;;;;;;;7.10;2.83;;;;;;;25.59;35.57;100635.19;5105983;28;20468;-63
2023/07/14 10:21:35;;;;;;;5.50;2.42;;;;;;;25.81;35.18;100637.78;5086035;28;20052;-62
2023/07/14 10:24:18;;;;;;;9.98;2.90;;;;;;;26.06;34.74;100633.53;5089767;28;20051;-64
2023/07/14 10:26:51;;;;;;;9.55;2.72;;;;;;;25.78;35.35;100627.34;5090808;28;20070;-62
2023/07/14 10:29:21;;;;;;;12.25;6.40;;;;;;;25.78;35.70;100627.34;5108737;28;20052;-63
2023/07/14 10:32:11;;;;;;;7.45;2.88;;;;;;;25.77;35.34;100615.25;5085914;28;20047;-62
2023/07/14 10:34:47;;;;;;;;;;;;;;;26.01;35.42;100602.91;5090555;28;20070;-61
2023/07/14 10:37:21;;;;;;;7.60;2.85;;;;;;;25.87;35.26;100603.06;5108786;28;19928;-61
2023/07/14 10:39:58;;;;;;;6.97;2.80;;;;;;;25.97;35.31;100607.81;5105148;28;20059;-63
2023/07/14 10:42:29;;;;;;;9.77;4.75;;;;;;;26.32;34.76;100589.66;5088326;28;20055;-62
2023/07/14 10:44:58;;;;;;;14.50;5.35;;;;;;;26.45;34.45;100587.84;5088466;28;20048;-63
2023/07/14 10:47:57;;;;;;;8.35;2.70;;;;;;;26.34;34.28;100582.34;5023626;28;20044;-68
2023/07/14 10:50:33;;;;;;;5.82;2.30;;;;;;;26.32;34.14;100570.69;5073471;28;20051;-69
2023/07/14 10:53:31;;;;;;;11.75;3.38;;;;;;;26.49;34.17;100578.13;5071763;28;20439;-62
2023/07/14 10:56:02;;;;;;;8.63;2.70;;;;;;;26.65;33.80;100569.81;5084555;28;20058;-72
2023/07/14 10:58:39;;;;;;;10.13;2.67;;;;;;;26.83;32.83;100563.13;5073746;28;20078;-64
2023/07/14 11:01:14;;;;;;;8.18;2.70;;;;;;;26.66;34.12;100559.31;5085078;28;20059;-62
2023/07/14 11:03:50;;;;;;;8.38;2.58;;;;;;;26.51;33.47;100547.44;5106701;28;20047;-62
2023/07/14 11:06:22;;;;;;;7.15;2.05;;;;;;;26.54;33.49;100540.09;5071280;28;20402;-62
2023/07/14 11:08:55;;;;;;;7.05;2.47;;;;;;;26.84;32.93;100534.44;5089401;28;20047;-63
2023/07/14 11:11:39;;;;;;;7.38;2.40;;;;;;;26.90;33.08;100540.41;5084315;28;20117;-61
2023/07/14 11:14:09;;;;;;;10.68;2.30;;;;;;;27.06;33.01;100527.19;5106993;27;20047;-62
2023/07/14 11:16:38;;;;;;;;;;;;;;;27.02;32.74;100520.81;5097921;28;20047;-61
2023/07/14 11:19:20;;;;;;;6.05;2.72;;;;;;;27.07;32.65;100522.34;5109115;28;19924;-63
2023/07/14 11:22:18;;;;;;;6.10;2.40;;;;;;;27.14;31.78;100525.84;5076303;28;20066;-64
2023/07/14 11:25:17;;;;;;;13.38;2.60;;;;;;;27.10;31.76;100510.97;5105704;28;20043;-63
2023/07/14 11:28:02;;;;;;;10.85;2.67;;;;;;;27.23;31.80;100514.75;5084380;27;20057;-64
2023/07/14 11:30:39;;;;;;;9.32;2.50;;;;;;;27.16;32.00;100503.59;5100640;28;20051;-65
2023/07/14 11:33:45;;;;;;;6.63;2.45;;;;;;;27.26;31.79;100496.94;5090681;28;20062;-63
2023/07/14 11:36:29;;;;;;;8.68;2.10;;;;;;;27.14;32.30;100489.09;5087091;28;20043;-62
2023/07/14 11:39:07;;;;;;;6.45;2.80;;;;;;;27.14;32.60;100477.78;5084287;28;20068;-63